createdAt,value
2019-05-05T00:01:51.968Z,3.47
2019-05-05T00:04:31.091Z,4.67
2019-05-05T00:06:59.899Z,5.10
2019-05-05T00:09:29.618Z,5.40
2019-05-05T00:12:34.332Z,7.27
2019-05-05T00:15:35.627Z,6.50
2019-05-05T00:18:07.455Z,2.40
2019-05-05T00:20:36.895Z,3.90
2019-05-05T00:23:05.969Z,3.57
2019-05-05T00:25:34.786Z,5.53
2019-05-05T00:28:05.050Z,4.67
2019-05-05T00:30:34.548Z,4.23
2019-05-05T00:33:05.384Z,4.67
2019-05-05T00:35:34.477Z,3.77
2019-05-05T00:38:05.085Z,3.73
2019-05-05T00:40:35.280Z,4.67
2019-05-05T00:43:05.369Z,4.17
2019-05-05T00:45:35.116Z,4.77
2019-05-05T00:48:27.581Z,5.33
2019-05-05T00:50:56.323Z,6.43
2019-05-05T00:53:25.282Z,4.03
2019-05-05T00:55:54.726Z,4.60
2019-05-05T00:58:24.749Z,12.50
2019-05-05T01:01:05.295Z,6.03
2019-05-05T01:03:34.866Z,5.63
2019-05-05T01:06:17.933Z,6.57
2019-05-05T01:08:46.864Z,4.00
2019-05-05T01:11:16.169Z,4.47
2019-05-05T01:13:45.622Z,4.27
2019-05-05T01:16:15.257Z,2.90
2019-05-05T01:18:45.015Z,5.40
2019-05-05T01:21:15.042Z,3.23
2019-05-05T01:23:45.502Z,5.47
2019-05-05T01:26:14.719Z,6.47
2019-05-05T01:28:44.716Z,4.30
2019-05-05T01:31:16.620Z,7.67
2019-05-05T01:34:04.820Z,4.60
2019-05-05T01:36:34.584Z,4.37
2019-05-05T01:39:34.447Z,4.57
2019-05-05T01:42:09.263Z,8.90
2019-05-05T01:44:38.139Z,5.53
2019-05-05T01:47:07.260Z,5.60
2019-05-05T01:49:36.280Z,6.60
2019-05-05T01:52:05.066Z,6.27
2019-05-05T01:54:35.289Z,3.53
2019-05-05T01:57:05.485Z,6.17
2019-05-05T01:59:35.322Z,4.87
2019-05-05T02:02:04.506Z,5.20
2019-05-05T02:04:34.320Z,3.70
2019-05-05T02:07:05.474Z,8.20
2019-05-05T02:09:35.416Z,5.90
2019-05-05T02:12:05.248Z,6.03
2019-05-05T02:14:35.159Z,5.20
2019-05-05T02:17:05.090Z,4.40
2019-05-05T02:19:35.041Z,3.60
2019-05-05T02:22:05.346Z,5.60
2019-05-05T02:24:35.339Z,12.50
2019-05-05T02:27:05.148Z,5.37
2019-05-05T02:29:44.540Z,4.57
2019-05-05T02:32:30.091Z,6.37
2019-05-05T02:34:59.515Z,6.17
2019-05-05T02:37:28.469Z,7.53
2019-05-05T02:40:02.990Z,4.83
2019-05-05T02:42:28.691Z,3.77
2019-05-05T02:44:59.560Z,5.27
2019-05-05T02:47:55.037Z,5.27
2019-05-05T02:50:26.438Z,6.93
2019-05-05T02:52:57.151Z,5.93
2019-05-05T02:55:26.271Z,5.10
2019-05-05T02:57:55.230Z,4.13
2019-05-05T03:00:43.751Z,5.37
2019-05-05T03:03:13.496Z,8.37
2019-05-05T03:05:43.483Z,4.93
2019-05-05T03:08:13.894Z,4.00
2019-05-05T03:10:44.292Z,6.10
2019-05-05T03:13:14.186Z,4.43
2019-05-05T03:15:46.866Z,6.60
2019-05-05T03:18:15.715Z,5.10
2019-05-05T03:20:44.688Z,4.30
2019-05-05T03:23:13.886Z,3.23
2019-05-05T03:25:44.010Z,5.47
2019-05-05T03:28:13.678Z,5.27
2019-05-05T03:30:45.380Z,5.10
2019-05-05T03:33:16.045Z,6.97
2019-05-05T03:35:45.151Z,6.37
2019-05-05T03:38:14.318Z,3.63
2019-05-05T03:40:45.719Z,5.23
2019-05-05T03:43:25.268Z,6.87
2019-05-05T03:46:04.291Z,8.23
2019-05-05T03:48:34.640Z,5.00
2019-05-05T03:51:16.030Z,6.73
2019-05-05T03:53:34.422Z,6.00
2019-05-05T03:56:03.977Z,4.25
2019-05-05T03:58:34.548Z,6.27
2019-05-05T04:01:23.918Z,5.67
2019-05-05T04:03:54.165Z,6.87
2019-05-05T04:06:37.134Z,5.97
2019-05-05T04:09:07.175Z,7.07
2019-05-05T04:11:36.198Z,6.93
2019-05-05T04:14:05.110Z,4.50
2019-05-05T04:16:40.234Z,6.47
2019-05-05T04:19:09.532Z,5.63
2019-05-05T04:21:38.605Z,6.17
2019-05-05T04:24:07.366Z,5.03
2019-05-05T04:26:36.233Z,5.83
2019-05-05T04:29:05.471Z,9.23
2019-05-05T04:31:34.648Z,6.73
2019-05-05T04:34:04.257Z,5.00
2019-05-05T04:36:34.585Z,6.33
2019-05-05T04:39:05.265Z,6.20
2019-05-05T04:41:34.133Z,5.90
2019-05-05T04:44:04.030Z,8.30
2019-05-05T04:46:33.886Z,6.00
2019-05-05T04:49:14.024Z,5.60
2019-05-05T04:51:50.056Z,6.43
2019-05-05T04:54:19.698Z,6.30
2019-05-05T04:56:48.558Z,6.13
2019-05-05T04:59:17.375Z,6.90
2019-05-05T05:01:47.106Z,5.57
2019-05-05T05:04:41.332Z,7.87
2019-05-05T05:07:10.302Z,8.17
2019-05-05T05:09:39.382Z,7.93
2019-05-05T05:12:08.765Z,8.13
2019-05-05T05:14:37.774Z,7.03
2019-05-05T05:17:11.401Z,8.70
2019-05-05T05:19:40.223Z,7.47
2019-05-05T05:22:09.068Z,9.60
2019-05-05T05:24:37.834Z,7.67
2019-05-05T05:27:06.761Z,6.43
2019-05-05T05:29:35.561Z,5.93
2019-05-05T05:32:04.462Z,7.30
2019-05-05T05:34:34.423Z,8.50
2019-05-05T05:37:04.211Z,10.03
2019-05-05T05:39:44.896Z,6.17
2019-05-05T05:42:13.836Z,7.80
2019-05-05T05:45:04.739Z,8.03
2019-05-05T05:47:53.535Z,5.67
2019-05-05T05:50:38.326Z,8.40
2019-05-05T05:53:07.157Z,7.83
2019-05-05T05:55:36.073Z,10.03
2019-05-05T05:58:05.411Z,11.23
2019-05-05T06:00:34.498Z,7.33
2019-05-05T06:03:04.061Z,7.50
2019-05-05T06:05:34.292Z,8.53
2019-05-05T06:08:04.757Z,7.23
2019-05-05T06:10:34.031Z,5.37
2019-05-05T06:13:04.219Z,9.67
2019-05-05T06:15:33.927Z,8.13
2019-05-05T06:18:04.675Z,8.90
2019-05-05T06:20:34.453Z,7.30
2019-05-05T06:23:04.100Z,8.57
2019-05-05T06:25:34.289Z,8.10
2019-05-05T06:28:04.290Z,11.43
2019-05-05T06:30:33.773Z,10.80
2019-05-05T06:33:05.028Z,7.80
2019-05-05T06:35:35.508Z,10.43
2019-05-05T06:38:04.840Z,9.93
2019-05-05T06:40:50.366Z,9.47
2019-05-05T06:43:38.097Z,9.53
2019-05-05T06:46:08.247Z,10.13
2019-05-05T06:48:37.533Z,13.73
2019-05-05T06:51:06.550Z,11.80
2019-05-05T06:53:35.426Z,9.23
2019-05-05T06:56:04.394Z,13.00
2019-05-05T06:58:34.739Z,10.23
2019-05-05T07:01:03.943Z,8.63
2019-05-05T07:03:33.685Z,9.80
2019-05-05T07:06:04.249Z,12.70
2019-05-05T07:08:34.741Z,8.40
2019-05-05T07:11:04.143Z,9.17
2019-05-05T07:13:33.951Z,10.40
2019-05-05T07:16:04.850Z,11.67
2019-05-05T07:18:34.235Z,9.40
2019-05-05T07:21:03.815Z,12.23
2019-05-05T07:23:34.147Z,11.90
2019-05-05T07:26:04.112Z,9.53
2019-05-05T07:28:34.233Z,13.87
2019-05-05T07:31:04.450Z,12.17
2019-05-05T07:33:34.551Z,9.50
2019-05-05T07:36:28.993Z,13.23
2019-05-05T07:38:57.799Z,14.27
2019-05-05T07:41:26.948Z,14.10
2019-05-05T07:43:55.906Z,16.63
2019-05-05T07:46:24.990Z,14.60
2019-05-05T07:48:54.454Z,11.53
2019-05-05T07:51:24.274Z,12.97
2019-05-05T07:53:54.713Z,13.57
2019-05-05T07:56:23.881Z,15.27
2019-05-05T07:58:54.335Z,10.73
2019-05-05T08:01:24.508Z,17.83
2019-05-05T08:03:53.938Z,15.75
2019-05-05T08:06:23.767Z,11.93
2019-05-05T08:08:54.589Z,13.50
2019-05-05T08:11:23.999Z,17.30
2019-05-05T08:13:54.712Z,13.10
2019-05-05T08:16:45.975Z,13.07
2019-05-05T08:19:37.446Z,19.27
2019-05-05T08:22:06.359Z,15.53
2019-05-05T08:25:06.629Z,18.10
2019-05-05T08:28:07.160Z,11.73
2019-05-05T08:31:10.680Z,13.57
2019-05-05T08:33:39.687Z,14.27
2019-05-05T08:36:10.167Z,19.77
2019-05-05T08:38:38.976Z,15.40
2019-05-05T08:41:08.436Z,18.93
2019-05-05T08:43:37.419Z,21.03
2019-05-05T08:46:06.264Z,19.40
2019-05-05T08:48:35.139Z,20.03
2019-05-05T08:51:04.884Z,21.50
2019-05-05T08:53:44.061Z,16.40
2019-05-05T08:56:04.776Z,13.97
2019-05-05T08:58:34.498Z,23.83
2019-05-05T09:01:04.378Z,19.30
2019-05-05T09:03:33.811Z,15.87
2019-05-05T09:06:04.713Z,15.20
2019-05-05T09:08:34.809Z,16.47
2019-05-05T09:11:04.783Z,16.67
2019-05-05T09:13:34.057Z,14.70
2019-05-05T09:16:06.671Z,17.87
2019-05-05T09:18:38.438Z,13.30
2019-05-05T09:21:07.449Z,15.00
2019-05-05T09:23:37.962Z,15.80
2019-05-05T09:26:18.525Z,16.27
2019-05-05T09:28:53.944Z,15.90
2019-05-05T09:31:23.980Z,17.27
2019-05-05T09:33:53.615Z,15.87
2019-05-05T09:36:24.291Z,20.33
2019-05-05T09:38:54.030Z,16.23
2019-05-05T09:41:23.569Z,12.23
2019-05-05T09:43:53.897Z,18.63
2019-05-05T09:46:23.577Z,15.50
2019-05-05T09:48:54.122Z,18.20
2019-05-05T09:51:24.145Z,12.00
2019-05-05T09:53:54.182Z,13.00
2019-05-05T09:56:23.669Z,11.10
2019-05-05T09:58:54.471Z,26.70
2019-05-05T10:01:24.529Z,16.27
2019-05-05T10:04:09.039Z,12.23
2019-05-05T10:06:38.594Z,16.43
2019-05-05T10:09:08.781Z,16.10
2019-05-05T10:11:37.879Z,20.63
2019-05-05T10:14:06.897Z,14.15
2019-05-05T10:16:35.932Z,14.97
2019-05-05T10:19:05.139Z,15.53
2019-05-05T10:21:34.034Z,15.27
2019-05-05T10:24:07.549Z,14.33
2019-05-05T10:26:36.385Z,12.27
2019-05-05T10:29:05.205Z,17.93
2019-05-05T10:31:34.585Z,15.53
2019-05-05T10:34:07.161Z,14.83
2019-05-05T10:36:36.423Z,14.73
2019-05-05T10:39:10.978Z,14.80
2019-05-05T10:41:40.123Z,16.27
2019-05-05T10:44:09.063Z,14.43
2019-05-05T10:46:37.975Z,14.47
2019-05-05T10:49:06.941Z,14.07
2019-05-05T10:51:35.768Z,19.60
2019-05-05T10:54:04.827Z,17.50
2019-05-05T10:56:34.581Z,15.70
2019-05-05T10:59:03.995Z,16.97
2019-05-05T11:01:32.980Z,10.73
2019-05-05T11:04:01.839Z,16.57
2019-05-05T11:06:30.930Z,11.77
2019-05-05T11:08:59.752Z,9.67
2019-05-05T11:11:28.750Z,9.63
2019-05-05T11:13:58.052Z,11.87
2019-05-05T11:16:26.987Z,8.10
2019-05-05T11:18:55.912Z,11.67
2019-05-05T11:21:24.923Z,6.70
2019-05-05T11:23:54.023Z,13.37
2019-05-05T11:26:24.693Z,11.80
2019-05-05T11:28:53.963Z,18.87
2019-05-05T11:31:23.969Z,13.10
2019-05-05T11:34:04.147Z,11.40
2019-05-05T11:36:54.273Z,9.77
2019-05-05T11:39:23.547Z,11.57
2019-05-05T11:41:54.626Z,10.43
2019-05-05T11:44:24.309Z,15.27
2019-05-05T11:46:54.658Z,15.80
2019-05-05T11:49:24.464Z,10.37
2019-05-05T11:51:54.148Z,13.23
2019-05-05T11:54:24.590Z,14.57
2019-05-05T11:56:54.160Z,15.33
2019-05-05T11:59:23.735Z,17.20
2019-05-05T12:01:54.937Z,14.97
2019-05-05T12:04:24.046Z,14.83
2019-05-05T12:06:54.418Z,12.43
2019-05-05T12:09:33.749Z,16.00
2019-05-05T12:12:04.185Z,12.07
2019-05-05T12:14:34.073Z,15.00
2019-05-05T12:17:04.549Z,16.73
2019-05-05T12:19:33.713Z,14.40
2019-05-05T12:22:03.388Z,12.70
2019-05-05T12:24:36.010Z,16.97
2019-05-05T12:27:36.352Z,11.10
2019-05-05T12:30:11.332Z,13.07
2019-05-05T12:32:40.279Z,13.13
2019-05-05T12:35:09.668Z,12.10
2019-05-05T12:37:39.433Z,11.50
2019-05-05T12:40:08.503Z,13.23
2019-05-05T12:42:37.434Z,14.13
2019-05-05T12:45:09.299Z,11.37
2019-05-05T12:47:56.310Z,13.40
2019-05-05T12:50:25.389Z,11.17
2019-05-05T12:52:54.908Z,10.87
2019-05-05T12:55:37.866Z,14.47
2019-05-05T12:57:55.357Z,12.67
2019-05-05T13:00:24.287Z,12.70
2019-05-05T13:02:53.907Z,12.67
2019-05-05T13:05:23.635Z,12.27
2019-05-05T13:07:52.648Z,12.70
2019-05-05T13:10:24.233Z,9.20
2019-05-05T13:12:54.332Z,11.37
2019-05-05T13:15:24.758Z,11.40
2019-05-05T13:17:54.321Z,9.63
2019-05-05T13:20:45.148Z,12.07
2019-05-05T13:23:31.191Z,12.83
2019-05-05T13:26:08.479Z,9.77
2019-05-05T13:28:37.571Z,16.37
2019-05-05T13:31:06.509Z,10.33
2019-05-05T13:33:37.259Z,11.13
2019-05-05T13:36:06.126Z,16.37
2019-05-05T13:38:35.832Z,13.37
2019-05-05T13:41:04.845Z,10.00
2019-05-05T13:43:34.215Z,12.63
2019-05-05T13:46:08.433Z,8.10
2019-05-05T13:48:37.313Z,8.33
2019-05-05T13:51:07.264Z,15.43
2019-05-05T13:53:36.195Z,12.73
2019-05-05T13:56:11.911Z,9.97
2019-05-05T13:58:35.757Z,10.53
2019-05-05T14:01:04.975Z,12.47
2019-05-05T14:03:34.299Z,11.90
2019-05-05T14:06:04.755Z,10.60
2019-05-05T14:08:36.274Z,9.20
2019-05-05T14:11:04.518Z,8.27
2019-05-05T14:13:34.176Z,13.77
2019-05-05T14:16:03.981Z,15.40
2019-05-05T14:18:32.926Z,11.83
2019-05-05T14:21:01.943Z,7.67
2019-05-05T14:23:34.402Z,11.23
2019-05-05T14:26:03.834Z,7.75
2019-05-05T14:28:34.000Z,11.40
2019-05-05T14:31:10.513Z,7.90
2019-05-05T14:33:51.024Z,12.13
2019-05-05T14:36:33.538Z,10.47
2019-05-05T14:39:04.261Z,10.30
2019-05-05T14:41:35.124Z,11.47
2019-05-05T14:44:04.436Z,9.37
2019-05-05T14:46:34.050Z,7.50
2019-05-05T14:49:05.583Z,8.60
2019-05-05T14:51:34.264Z,15.07
2019-05-05T14:54:04.618Z,9.40
2019-05-05T14:56:36.477Z,8.90
2019-05-05T14:59:04.492Z,6.80
2019-05-05T15:01:34.424Z,10.20
2019-05-05T15:04:04.304Z,8.70
2019-05-05T15:06:44.031Z,9.90
2019-05-05T15:09:44.086Z,9.40
2019-05-05T15:12:47.479Z,7.40
2019-05-05T15:15:16.279Z,8.10
2019-05-05T15:17:46.959Z,8.23
2019-05-05T15:20:15.951Z,6.60
2019-05-05T15:22:45.059Z,8.90
2019-05-05T15:25:13.947Z,7.93
2019-05-05T15:27:44.979Z,9.20
2019-05-05T15:30:13.728Z,9.13
2019-05-05T15:32:43.782Z,12.00
2019-05-05T15:35:14.277Z,10.97
2019-05-05T15:37:43.731Z,12.60
2019-05-05T15:40:14.340Z,20.37
2019-05-05T15:42:43.975Z,16.40
2019-05-05T15:45:13.178Z,14.17
2019-05-05T15:47:43.579Z,11.10
2019-05-05T15:50:13.800Z,8.00
2019-05-05T15:52:44.047Z,8.40
2019-05-05T15:55:14.043Z,6.70
2019-05-05T15:57:44.290Z,8.03
2019-05-05T16:00:14.200Z,7.43
2019-05-05T16:02:44.300Z,7.13
2019-05-05T16:05:13.759Z,7.17
2019-05-05T16:07:44.048Z,6.77
2019-05-05T16:10:13.725Z,8.60
2019-05-05T16:12:44.820Z,8.30
2019-05-05T16:15:27.188Z,8.07
2019-05-05T16:18:19.462Z,12.60
2019-05-05T16:20:54.647Z,20.03
2019-05-05T16:23:35.608Z,6.10
2019-05-05T16:26:03.890Z,6.93
2019-05-05T16:28:34.286Z,8.20
2019-05-05T16:31:05.332Z,8.93
2019-05-05T16:33:34.137Z,6.87
2019-05-05T16:36:06.075Z,7.67
2019-05-05T16:38:34.346Z,8.27
2019-05-05T16:41:03.599Z,6.90
2019-05-05T16:43:33.755Z,8.87
2019-05-05T16:46:04.257Z,13.20
2019-05-05T16:48:34.366Z,7.80
2019-05-05T16:51:04.669Z,10.60
2019-05-05T16:53:40.172Z,6.30
2019-05-05T16:56:11.294Z,9.57
2019-05-05T16:58:40.290Z,9.13
2019-05-05T17:01:14.383Z,6.60
2019-05-05T17:03:45.662Z,6.37
2019-05-05T17:06:14.498Z,8.67
2019-05-05T17:08:44.485Z,9.00
2019-05-05T17:11:14.963Z,7.00
2019-05-05T17:14:00.263Z,7.13
2019-05-05T17:16:50.249Z,11.07
2019-05-05T17:19:35.687Z,8.47
2019-05-05T17:22:22.778Z,7.70
2019-05-05T17:24:53.456Z,10.20
2019-05-05T17:27:23.642Z,7.83
2019-05-05T17:29:53.659Z,9.07
2019-05-05T17:32:24.794Z,8.53
2019-05-05T17:34:54.121Z,10.30
2019-05-05T17:37:23.953Z,11.37
2019-05-05T17:40:09.057Z,8.20
2019-05-05T17:43:06.248Z,9.77
2019-05-05T17:45:54.935Z,9.00
2019-05-05T17:48:34.433Z,11.67
2019-05-05T17:51:14.800Z,31.23
2019-05-05T17:54:18.079Z,23.10
2019-05-05T17:56:47.121Z,20.37
2019-05-05T17:59:16.350Z,19.13
2019-05-05T18:01:45.326Z,11.43
2019-05-05T18:04:14.586Z,10.43
2019-05-05T18:06:55.662Z,11.13
2019-05-05T18:09:43.898Z,10.17
2019-05-05T18:12:23.665Z,12.03
2019-05-05T18:14:54.551Z,9.90
2019-05-05T18:17:24.413Z,8.23
2019-05-05T18:19:53.623Z,5.97
2019-05-05T18:22:24.579Z,12.50
2019-05-05T18:24:53.951Z,8.23
2019-05-05T18:27:23.659Z,11.73
2019-05-05T18:29:54.463Z,10.07
2019-05-05T18:32:24.829Z,10.70
2019-05-05T18:34:56.083Z,8.03
2019-05-05T18:37:25.892Z,9.03
2019-05-05T18:39:55.250Z,10.40
2019-05-05T18:42:25.347Z,9.13
2019-05-05T18:44:58.706Z,8.97
2019-05-05T18:47:27.944Z,8.20
2019-05-05T18:49:56.988Z,6.90
2019-05-05T18:52:26.177Z,8.87
2019-05-05T18:54:57.640Z,9.47
2019-05-05T18:57:26.770Z,11.50
2019-05-05T18:59:56.124Z,10.63
2019-05-05T19:02:50.075Z,8.83
2019-05-05T19:05:50.622Z,8.70
2019-05-05T19:08:24.403Z,8.77
2019-05-05T19:10:54.187Z,8.17
2019-05-05T19:13:24.406Z,8.77
2019-05-05T19:15:53.936Z,8.67
2019-05-05T19:18:24.495Z,11.47
2019-05-05T19:21:03.479Z,12.40
2019-05-05T19:23:35.293Z,8.03
2019-05-05T19:26:04.227Z,7.70
2019-05-05T19:28:42.108Z,9.40
2019-05-05T19:31:04.836Z,10.73
2019-05-05T19:33:34.170Z,9.27
2019-05-05T19:36:05.000Z,9.23
2019-05-05T19:38:34.669Z,10.17
2019-05-05T19:41:04.087Z,5.30
2019-05-05T19:43:34.013Z,7.70
2019-05-05T19:46:04.722Z,7.90
2019-05-05T19:48:34.051Z,12.03
2019-05-05T19:51:06.736Z,9.50
2019-05-05T19:53:35.869Z,10.23
2019-05-05T19:56:05.005Z,8.57
2019-05-05T19:58:36.531Z,8.63
2019-05-05T20:01:05.150Z,9.80
2019-05-05T20:03:35.352Z,10.77
2019-05-05T20:06:04.963Z,10.33
2019-05-05T20:08:41.060Z,10.07
2019-05-05T20:11:05.617Z,9.03
2019-05-05T20:13:34.686Z,7.30
2019-05-05T20:16:25.720Z,8.27
2019-05-05T20:18:54.798Z,8.80
2019-05-05T20:21:24.300Z,11.57
2019-05-05T20:23:54.027Z,7.53
2019-05-05T20:26:23.942Z,6.63
2019-05-05T20:28:55.326Z,7.20
2019-05-05T20:31:23.847Z,10.73
2019-05-05T20:34:16.191Z,8.73
2019-05-05T20:37:07.205Z,7.83
2019-05-05T20:39:36.277Z,10.90
2019-05-05T20:42:05.348Z,11.53
2019-05-05T20:44:34.505Z,8.53
2019-05-05T20:47:04.509Z,6.77
2019-05-05T20:49:34.607Z,7.90
2019-05-05T20:52:04.024Z,9.10
2019-05-05T20:54:33.476Z,9.10
2019-05-05T20:57:04.281Z,10.03
2019-05-05T20:59:34.277Z,8.77
2019-05-05T21:02:04.503Z,8.53
2019-05-05T21:04:34.456Z,10.37
2019-05-05T21:07:04.483Z,8.80
2019-05-05T21:09:34.604Z,10.70
2019-05-05T21:12:05.207Z,7.33
2019-05-05T21:14:37.818Z,9.43
2019-05-05T21:17:05.323Z,8.27
2019-05-05T21:19:34.732Z,9.13
2019-05-05T21:22:22.916Z,8.20
2019-05-05T21:24:54.292Z,8.50
2019-05-05T21:27:24.492Z,9.43
2019-05-05T21:29:54.554Z,9.23
2019-05-05T21:32:25.340Z,11.63
2019-05-05T21:34:54.249Z,8.97
2019-05-05T21:37:24.926Z,8.30
2019-05-05T21:39:55.141Z,9.23
2019-05-05T21:42:24.304Z,8.37
2019-05-05T21:44:53.999Z,12.03
2019-05-05T21:47:23.973Z,8.80
2019-05-05T21:49:54.362Z,8.00
2019-05-05T21:52:34.595Z,11.23
2019-05-05T21:55:25.518Z,9.77
2019-05-05T21:58:16.620Z,11.63
2019-05-05T22:01:04.420Z,8.90
2019-05-05T22:03:36.260Z,8.80
2019-05-05T22:06:05.803Z,10.57
2019-05-05T22:08:35.719Z,12.57
2019-05-05T22:11:06.743Z,8.30
2019-05-05T22:13:36.598Z,10.23
2019-05-05T22:16:05.610Z,9.60
2019-05-05T22:18:36.692Z,12.30
2019-05-05T22:21:14.090Z,10.23
2019-05-05T22:23:44.589Z,11.23
2019-05-05T22:26:15.091Z,6.97
2019-05-05T22:28:44.604Z,9.13
2019-05-05T22:31:14.164Z,9.43
2019-05-05T22:33:44.701Z,10.07
2019-05-05T22:36:14.140Z,8.07
2019-05-05T22:38:44.657Z,8.63
2019-05-05T22:41:15.891Z,11.83
2019-05-05T22:43:44.798Z,12.10
2019-05-05T22:46:18.428Z,9.50
2019-05-05T22:48:47.218Z,7.70
2019-05-05T22:51:16.096Z,9.33
2019-05-05T22:53:45.245Z,9.80
2019-05-05T22:56:14.805Z,10.40
2019-05-05T22:58:45.611Z,12.93
2019-05-05T23:01:14.587Z,10.23
2019-05-05T23:03:55.136Z,9.10
2019-05-05T23:06:24.984Z,8.53
2019-05-05T23:08:54.651Z,9.60
2019-05-05T23:11:23.995Z,12.30
2019-05-05T23:13:54.979Z,8.90
2019-05-05T23:16:34.124Z,11.73
2019-05-05T23:19:03.609Z,10.17
2019-05-05T23:21:44.321Z,7.37
2019-05-05T23:24:34.409Z,13.40
2019-05-05T23:27:03.919Z,8.93
2019-05-05T23:29:34.159Z,13.03
2019-05-05T23:32:03.211Z,11.00
2019-05-05T23:34:33.856Z,12.30
2019-05-05T23:37:04.343Z,8.47
2019-05-05T23:39:33.526Z,10.57
2019-05-05T23:42:04.026Z,6.90
2019-05-05T23:44:34.526Z,11.70
2019-05-05T23:47:04.399Z,12.20
2019-05-05T23:49:34.882Z,7.93
2019-05-05T23:52:04.428Z,9.53
2019-05-05T23:54:34.097Z,11.03
2019-05-05T23:57:04.702Z,9.37
2019-05-05T23:59:34.739Z,13.53
